createdAt,value
2023-03-11T00:01:32.182Z,7.95
2023-03-11T00:03:59.038Z,7.28
2023-03-11T00:06:25.479Z,9.48
2023-03-11T00:08:51.895Z,8.35
2023-03-11T00:11:18.372Z,8.20
2023-03-11T00:13:44.820Z,6.55
2023-03-11T00:16:11.290Z,8.10
2023-03-11T00:18:37.796Z,8.68
2023-03-11T00:21:04.429Z,8.18
2023-03-11T00:23:30.868Z,8.88
2023-03-11T00:25:57.256Z,7.35
2023-03-11T00:28:23.680Z,9.35
2023-03-11T00:30:50.093Z,9.15
2023-03-11T00:33:16.571Z,10.18
2023-03-11T00:35:43.110Z,9.15
2023-03-11T00:38:14.402Z,9.20
2023-03-11T00:40:40.817Z,9.68
2023-03-11T00:43:07.277Z,9.25
2023-03-11T00:45:33.698Z,10.18
2023-03-11T00:48:00.144Z,9.55
2023-03-11T00:50:28.597Z,8.95
2023-03-11T00:52:55.055Z,8.38
2023-03-11T00:55:23.498Z,9.18
2023-03-11T00:57:57.172Z,9.32
2023-03-11T01:00:23.961Z,9.35
2023-03-11T01:02:51.222Z,9.02
2023-03-11T01:05:21.724Z,9.82
2023-03-11T01:07:48.421Z,8.90
2023-03-11T01:10:15.139Z,9.60
2023-03-11T01:12:41.649Z,8.73
2023-03-11T01:15:08.905Z,8.95
2023-03-11T01:17:35.338Z,9.18
2023-03-11T01:20:01.792Z,8.95
2023-03-11T01:22:28.202Z,9.20
2023-03-11T01:24:56.201Z,8.50
2023-03-11T01:27:22.716Z,8.73
2023-03-11T01:29:49.153Z,7.75
2023-03-11T01:32:15.580Z,8.23
2023-03-11T01:34:41.995Z,6.75
2023-03-11T01:37:08.399Z,8.30
2023-03-11T01:39:34.868Z,8.32
2023-03-11T01:42:01.270Z,8.18
2023-03-11T01:44:27.685Z,8.30
2023-03-11T01:46:54.077Z,7.50
2023-03-11T01:49:21.760Z,7.35
2023-03-11T01:51:49.726Z,6.93
2023-03-11T01:54:18.020Z,7.63
2023-03-11T01:56:44.466Z,7.53
2023-03-11T01:59:12.653Z,6.32
2023-03-11T02:01:44.076Z,7.55
2023-03-11T02:04:10.474Z,7.07
2023-03-11T02:06:36.900Z,6.85
2023-03-11T02:09:03.398Z,7.72
2023-03-11T02:11:30.076Z,7.35
2023-03-11T02:13:59.075Z,8.18
2023-03-11T02:16:25.542Z,7.22
2023-03-11T02:18:51.986Z,7.63
2023-03-11T02:21:28.435Z,7.60
2023-03-11T02:23:57.741Z,8.10
2023-03-11T02:26:27.034Z,8.57
2023-03-11T02:28:53.464Z,7.32
2023-03-11T02:31:20.244Z,8.07
2023-03-11T02:33:46.681Z,7.78
2023-03-11T02:36:31.862Z,6.88
2023-03-11T02:38:58.287Z,7.57
2023-03-11T02:41:24.731Z,8.25
2023-03-11T02:43:51.129Z,7.13
2023-03-11T02:46:17.616Z,6.63
2023-03-11T02:48:44.018Z,7.88
2023-03-11T02:51:10.433Z,8.38
2023-03-11T02:53:39.574Z,7.55
2023-03-11T02:56:06.284Z,7.13
2023-03-11T02:58:32.696Z,8.00
2023-03-11T03:00:59.114Z,7.05
2023-03-11T03:03:25.625Z,7.88
2023-03-11T03:05:52.032Z,7.80
2023-03-11T03:08:18.458Z,7.80
2023-03-11T03:10:44.849Z,7.05
2023-03-11T03:13:11.266Z,7.75
2023-03-11T03:15:37.649Z,7.88
2023-03-11T03:18:04.176Z,7.93
2023-03-11T03:20:30.646Z,6.90
2023-03-11T03:22:57.301Z,8.10
2023-03-11T03:25:23.702Z,7.72
2023-03-11T03:27:50.152Z,7.35
2023-03-11T03:30:16.652Z,6.97
2023-03-11T03:32:43.140Z,6.50
2023-03-11T03:35:09.737Z,7.13
2023-03-11T03:37:36.514Z,8.07
2023-03-11T03:40:03.518Z,6.78
2023-03-11T03:42:29.937Z,7.50
2023-03-11T03:44:56.342Z,5.80
2023-03-11T03:47:22.759Z,6.93
2023-03-11T03:49:49.191Z,6.72
2023-03-11T03:52:15.572Z,6.57
2023-03-11T03:54:42.003Z,6.68
2023-03-11T03:57:08.437Z,5.60
2023-03-11T03:59:34.900Z,6.22
2023-03-11T04:02:01.350Z,6.35
2023-03-11T04:04:27.776Z,6.32
2023-03-11T04:06:54.188Z,5.75
2023-03-11T04:09:20.615Z,6.13
2023-03-11T04:11:47.075Z,6.90
2023-03-11T04:14:13.490Z,5.68
2023-03-11T04:16:39.947Z,6.97
2023-03-11T04:19:06.445Z,5.72
2023-03-11T04:21:33.147Z,6.03
2023-03-11T04:23:59.611Z,6.60
2023-03-11T04:26:26.033Z,5.55
2023-03-11T04:28:52.509Z,6.13
2023-03-11T04:31:18.997Z,5.30
2023-03-11T04:33:45.405Z,5.30
2023-03-11T04:36:12.005Z,5.32
2023-03-11T04:38:38.431Z,4.88
2023-03-11T04:41:05.428Z,6.00
2023-03-11T04:43:31.846Z,5.68
2023-03-11T04:45:58.335Z,5.78
2023-03-11T04:48:24.888Z,5.53
2023-03-11T04:50:51.277Z,5.65
2023-03-11T04:53:17.737Z,5.15
2023-03-11T04:55:44.271Z,5.30
2023-03-11T04:58:10.678Z,5.03
2023-03-11T05:00:37.118Z,5.50
2023-03-11T05:03:03.625Z,4.85
2023-03-11T05:05:30.124Z,5.13
2023-03-11T05:07:56.533Z,5.55
2023-03-11T05:10:22.956Z,5.22
2023-03-11T05:12:49.934Z,4.85
2023-03-11T05:15:16.668Z,5.80
2023-03-11T05:17:43.173Z,6.03
2023-03-11T05:20:10.416Z,5.38
2023-03-11T05:22:37.011Z,6.13
2023-03-11T05:25:03.982Z,6.47
2023-03-11T05:27:30.401Z,5.13
2023-03-11T05:29:56.801Z,5.38
2023-03-11T05:32:23.333Z,5.47
2023-03-11T05:34:49.852Z,5.60
2023-03-11T05:37:16.278Z,6.05
2023-03-11T05:39:42.685Z,6.10
2023-03-11T05:42:09.135Z,6.70
2023-03-11T05:44:35.581Z,5.75
2023-03-11T05:47:02.093Z,6.78
2023-03-11T05:49:28.577Z,6.82
2023-03-11T05:51:56.797Z,6.05
2023-03-11T05:54:24.836Z,5.00
2023-03-11T05:56:51.277Z,5.65
2023-03-11T05:59:17.666Z,5.68
2023-03-11T06:01:44.360Z,5.65
2023-03-11T06:04:11.035Z,5.68
2023-03-11T06:06:38.873Z,4.57
2023-03-11T06:09:05.300Z,4.95
2023-03-11T06:11:31.724Z,5.60
2023-03-11T06:13:58.299Z,5.82
2023-03-11T06:16:25.025Z,4.82
2023-03-11T06:18:51.823Z,5.38
2023-03-11T06:21:20.156Z,4.82
2023-03-11T06:23:46.624Z,5.28
2023-03-11T06:26:14.652Z,5.32
2023-03-11T06:28:42.804Z,4.70
2023-03-11T06:31:14.442Z,4.90
2023-03-11T06:33:41.122Z,5.43
2023-03-11T06:36:07.928Z,4.93
2023-03-11T06:38:36.939Z,5.25
2023-03-11T06:41:06.757Z,5.25
2023-03-11T06:43:33.910Z,5.93
2023-03-11T06:46:00.825Z,6.75
2023-03-11T06:48:27.403Z,6.00
2023-03-11T06:50:54.603Z,5.93
2023-03-11T06:53:21.172Z,5.35
2023-03-11T06:56:00.774Z,5.85
2023-03-11T06:58:27.300Z,5.25
2023-03-11T07:00:53.747Z,4.53
2023-03-11T07:03:20.187Z,5.60
2023-03-11T07:05:49.809Z,5.03
2023-03-11T07:08:16.283Z,4.18
2023-03-11T07:10:42.727Z,5.22
2023-03-11T07:13:09.138Z,5.50
2023-03-11T07:15:35.577Z,5.28
2023-03-11T07:18:02.013Z,4.80
2023-03-11T07:20:28.573Z,5.07
2023-03-11T07:22:54.967Z,4.80
2023-03-11T07:25:21.378Z,5.13
2023-03-11T07:27:47.970Z,4.55
2023-03-11T07:30:14.733Z,4.30
2023-03-11T07:32:41.966Z,5.05
2023-03-11T07:35:08.792Z,4.95
2023-03-11T07:37:35.222Z,4.70
2023-03-11T07:40:01.667Z,5.13
2023-03-11T07:42:28.061Z,4.35
2023-03-11T07:44:54.472Z,4.35
2023-03-11T07:47:20.878Z,4.43
2023-03-11T07:49:47.313Z,4.45
2023-03-11T07:52:13.709Z,4.00
2023-03-11T07:54:40.153Z,4.65
2023-03-11T07:57:06.574Z,5.47
2023-03-11T07:59:32.958Z,5.32
2023-03-11T08:01:59.377Z,4.55
2023-03-11T08:04:25.803Z,4.53
2023-03-11T08:06:53.344Z,4.75
2023-03-11T08:09:19.770Z,5.15
2023-03-11T08:11:47.550Z,3.95
2023-03-11T08:14:15.656Z,3.78
2023-03-11T08:16:42.077Z,3.28
2023-03-11T08:19:11.535Z,3.90
2023-03-11T08:21:38.016Z,4.45
2023-03-11T08:24:06.819Z,3.50
2023-03-11T08:26:33.384Z,3.10
2023-03-11T08:28:59.828Z,3.55
2023-03-11T08:31:30.734Z,3.67
2023-03-11T08:34:01.692Z,3.63
2023-03-11T08:36:28.310Z,4.07
2023-03-11T08:38:54.814Z,3.10
2023-03-11T08:41:21.301Z,4.13
2023-03-11T08:43:47.728Z,3.38
2023-03-11T08:46:28.329Z,2.88
2023-03-11T08:48:54.944Z,3.30
2023-03-11T08:51:22.037Z,3.25
2023-03-11T08:53:48.538Z,3.35
2023-03-11T08:56:15.255Z,3.25
2023-03-11T08:58:41.701Z,3.53
2023-03-11T09:01:08.211Z,2.55
2023-03-11T09:03:35.016Z,3.05
2023-03-11T09:06:02.746Z,2.17
2023-03-11T09:08:29.360Z,2.10
2023-03-11T09:10:55.856Z,3.42
2023-03-11T09:13:22.497Z,1.90
2023-03-11T09:15:49.717Z,1.40
2023-03-11T09:18:16.415Z,1.58
2023-03-11T09:20:42.913Z,1.70
2023-03-11T09:23:10.024Z,1.38
2023-03-11T09:25:36.454Z,1.70
2023-03-11T09:28:02.880Z,1.75
2023-03-11T09:30:29.320Z,1.42
2023-03-11T09:32:55.791Z,1.95
2023-03-11T09:35:22.265Z,1.80
2023-03-11T09:37:48.714Z,1.52
2023-03-11T09:40:20.273Z,1.67
2023-03-11T09:43:28.147Z,1.92
2023-03-11T09:46:16.895Z,2.20
2023-03-11T09:48:44.658Z,1.48
2023-03-11T09:51:27.347Z,1.23
2023-03-11T09:54:03.210Z,1.67
2023-03-11T09:59:07.879Z,2.17
2023-03-11T10:01:37.286Z,1.23
2023-03-11T10:04:25.583Z,1.42
2023-03-11T10:06:52.030Z,1.40
2023-03-11T10:09:55.060Z,1.70
2023-03-11T10:13:03.165Z,1.45
2023-03-11T10:15:47.472Z,1.35
2023-03-11T10:18:19.754Z,2.20
2023-03-11T10:20:55.912Z,1.63
2023-03-11T10:23:59.874Z,1.73
2023-03-11T10:26:51.713Z,1.52
2023-03-11T10:29:20.800Z,1.67
2023-03-11T10:32:00.604Z,1.73
2023-03-11T10:34:50.746Z,2.20
2023-03-11T10:37:36.021Z,2.03
2023-03-11T10:40:24.909Z,2.05
2023-03-11T10:42:51.995Z,2.22
2023-03-11T10:45:18.478Z,1.85
2023-03-11T10:47:44.921Z,1.90
2023-03-11T10:50:20.541Z,1.90
2023-03-11T10:53:10.592Z,2.13
2023-03-11T10:55:45.788Z,1.73
2023-03-11T10:58:14.032Z,1.75
2023-03-11T11:00:40.469Z,2.20
2023-03-11T11:03:14.959Z,1.42
2023-03-11T11:05:41.445Z,2.05
2023-03-11T11:08:08.724Z,1.38
2023-03-11T11:10:35.960Z,1.35
2023-03-11T11:13:08.306Z,1.75
2023-03-11T11:15:36.475Z,1.50
2023-03-11T11:18:03.854Z,1.30
2023-03-11T11:20:30.652Z,3.42
2023-03-11T11:23:01.574Z,1.83
2023-03-11T11:25:30.837Z,1.73
2023-03-11T11:28:17.556Z,1.40
2023-03-11T11:30:56.873Z,1.85
2023-03-11T11:33:49.274Z,1.58
2023-03-11T11:36:15.829Z,1.10
2023-03-11T11:38:42.279Z,1.48
2023-03-11T11:41:09.541Z,1.70
2023-03-11T11:43:41.915Z,1.13
2023-03-11T11:46:17.495Z,0.50
2023-03-11T11:49:05.791Z,0.85
2023-03-11T11:51:34.809Z,0.63
2023-03-11T11:54:06.729Z,0.50
2023-03-11T11:56:33.156Z,0.40
2023-03-11T11:58:59.632Z,1.00
2023-03-11T12:01:58.538Z,0.68
2023-03-11T12:04:34.089Z,0.20
2023-03-11T12:07:10.426Z,0.57
2023-03-11T12:09:39.436Z,0.40
2023-03-11T12:12:21.784Z,0.13
2023-03-11T12:15:22.174Z,0.43
2023-03-11T12:17:49.409Z,0.60
2023-03-11T12:20:20.946Z,0.80
2023-03-11T12:23:02.522Z,0.30
2023-03-11T12:25:30.377Z,0.30
2023-03-11T12:28:24.897Z,0.20
2023-03-11T12:30:54.220Z,0.30
2023-03-11T12:33:25.122Z,0.20
2023-03-11T12:35:56.353Z,0.25
2023-03-11T12:38:32.798Z,0.50
2023-03-11T12:41:14.345Z,0.43
2023-03-11T12:43:40.624Z,0.43
2023-03-11T12:46:11.043Z,0.40
2023-03-11T12:48:47.041Z,0.52
2023-03-11T12:51:31.573Z,0.40
2023-03-11T12:53:57.981Z,0.22
2023-03-11T12:56:40.437Z,0.63
2023-03-11T12:59:25.531Z,0.43
2023-03-11T13:02:03.349Z,0.93
2023-03-11T13:04:56.052Z,0.40
2023-03-11T13:07:22.447Z,0.50
2023-03-11T13:10:06.980Z,0.77
2023-03-11T13:12:49.650Z,0.80
2023-03-11T13:15:19.087Z,0.40
2023-03-11T13:18:03.635Z,0.50
2023-03-11T13:20:39.282Z,0.32
2023-03-11T13:23:14.856Z,0.40
2023-03-11T13:25:47.450Z,0.32
2023-03-11T13:28:31.532Z,0.47
2023-03-11T13:31:16.761Z,0.70
2023-03-11T13:33:48.639Z,0.45
2023-03-11T13:36:46.014Z,0.17
2023-03-11T13:39:45.474Z,0.32
2023-03-11T13:44:43.957Z,0.40
2023-03-11T13:47:13.806Z,0.38
2023-03-11T13:49:42.710Z,0.70
2023-03-11T13:52:12.662Z,0.52
2023-03-11T13:54:43.285Z,0.77
2023-03-11T13:57:38.866Z,0.55
2023-03-11T14:00:15.834Z,0.50
2023-03-11T14:02:56.235Z,0.30
2023-03-11T14:05:32.886Z,0.30
2023-03-11T14:08:21.850Z,0.13
2023-03-11T14:11:00.441Z,0.30
2023-03-11T14:13:33.927Z,0.30
2023-03-11T14:16:13.323Z,0.30
2023-03-11T14:18:41.306Z,0.63
2023-03-11T14:21:21.226Z,0.30
2023-03-11T14:23:49.212Z,0.20
2023-03-11T14:26:20.770Z,0.50
2023-03-11T14:28:51.970Z,0.45
2023-03-11T14:31:31.570Z,0.40
2023-03-11T14:34:04.411Z,0.20
2023-03-11T14:36:39.174Z,0.47
2023-03-11T14:39:05.576Z,0.38
2023-03-11T14:41:31.981Z,0.40
2023-03-11T14:43:58.403Z,0.20
2023-03-11T14:46:27.755Z,0.10
2023-03-11T14:48:54.866Z,0.40
2023-03-11T14:51:24.092Z,0.25
2023-03-11T14:54:12.685Z,0.20
2023-03-11T14:56:39.841Z,0.35
2023-03-11T14:59:21.491Z,0.40
2023-03-11T15:01:47.896Z,0.30
2023-03-11T15:04:33.433Z,0.40
2023-03-11T15:07:00.159Z,0.35
2023-03-11T15:09:26.666Z,0.20
2023-03-11T15:12:00.508Z,0.30
2023-03-11T15:14:31.263Z,0.30
2023-03-11T15:17:33.100Z,0.45
2023-03-11T15:20:02.283Z,0.63
2023-03-11T15:22:42.175Z,0.40
2023-03-11T15:25:16.493Z,0.30
2023-03-11T15:27:42.916Z,0.40
2023-03-11T15:30:26.611Z,0.50
2023-03-11T15:32:53.225Z,0.43
2023-03-11T15:35:21.620Z,0.30
2023-03-11T15:37:48.800Z,0.30
2023-03-11T15:40:26.103Z,0.30
2023-03-11T15:43:14.911Z,0.60
2023-03-11T15:45:41.552Z,0.43
2023-03-11T15:48:10.387Z,0.60
2023-03-11T15:50:53.490Z,0.30
2023-03-11T15:53:21.071Z,0.93
2023-03-11T15:55:47.627Z,0.55
2023-03-11T15:58:19.259Z,0.40
2023-03-11T16:00:49.834Z,0.52
2023-03-11T16:03:16.396Z,0.50
2023-03-11T16:05:45.281Z,0.52
2023-03-11T16:08:11.806Z,0.50
2023-03-11T16:10:38.353Z,0.57
2023-03-11T16:13:04.931Z,0.80
2023-03-11T16:15:35.370Z,0.80
2023-03-11T16:18:03.182Z,0.77
2023-03-11T16:20:38.181Z,0.85
2023-03-11T16:23:04.685Z,0.95
2023-03-11T16:25:35.056Z,0.60
2023-03-11T16:28:01.621Z,0.82
2023-03-11T16:30:29.332Z,1.00
2023-03-11T16:32:55.887Z,0.70
2023-03-11T16:35:22.416Z,0.73
2023-03-11T16:37:48.942Z,0.77
2023-03-11T16:40:17.910Z,0.82
2023-03-11T16:42:44.443Z,0.80
2023-03-11T16:45:12.660Z,1.00
2023-03-11T16:47:39.163Z,1.08
2023-03-11T16:50:06.260Z,0.90
2023-03-11T16:52:32.848Z,0.90
2023-03-11T16:54:59.323Z,1.00
2023-03-11T16:57:25.778Z,1.50
2023-03-11T16:59:52.296Z,1.40
2023-03-11T17:02:19.221Z,1.00
2023-03-11T17:11:42.095Z,1.75
2023-03-11T17:14:16.370Z,1.10
2023-03-11T17:16:43.984Z,1.02
2023-03-11T17:19:10.616Z,1.20
2023-03-11T17:21:37.086Z,1.08
2023-03-11T17:24:03.648Z,1.25
2023-03-11T17:26:30.187Z,1.23
2023-03-11T17:28:56.799Z,1.33
2023-03-11T17:31:23.297Z,1.30
2023-03-11T17:33:49.831Z,0.88
2023-03-11T17:36:16.727Z,1.20
2023-03-11T17:38:44.114Z,0.98
2023-03-11T17:41:12.148Z,1.15
2023-03-11T17:43:38.945Z,1.02
2023-03-11T17:46:09.470Z,1.30
2023-03-11T17:48:35.887Z,0.85
2023-03-11T17:51:12.695Z,0.93
2023-03-11T17:53:39.697Z,1.20
2023-03-11T17:56:06.496Z,0.90
2023-03-11T17:58:33.059Z,1.00
2023-03-11T18:00:59.658Z,1.10
2023-03-11T18:03:26.084Z,0.95
2023-03-11T18:05:56.562Z,1.23
2023-03-11T18:08:22.985Z,0.93
2023-03-11T18:10:54.158Z,0.82
2023-03-11T18:13:20.693Z,0.82
2023-03-11T18:15:51.091Z,0.85
2023-03-11T18:18:17.550Z,0.98
2023-03-11T18:20:43.998Z,0.65
2023-03-11T18:23:10.451Z,0.90
2023-03-11T18:25:36.939Z,0.90
2023-03-11T18:28:04.584Z,0.98
2023-03-11T18:30:32.759Z,0.82
2023-03-11T18:33:08.857Z,1.05
2023-03-11T18:35:35.757Z,0.88
2023-03-11T18:38:02.253Z,1.10
2023-03-11T18:40:28.800Z,0.77
2023-03-11T18:42:57.370Z,1.10
2023-03-11T18:45:28.093Z,0.75
2023-03-11T18:47:54.607Z,0.55
2023-03-11T18:50:21.328Z,0.93
2023-03-11T18:52:50.641Z,0.85
2023-03-11T18:55:17.926Z,0.95
2023-03-11T18:57:44.437Z,0.68
2023-03-11T19:00:11.313Z,0.38
2023-03-11T19:02:37.819Z,0.43
2023-03-11T19:05:04.677Z,0.95
2023-03-11T19:07:31.524Z,0.82
2023-03-11T19:10:00.982Z,0.70
2023-03-11T19:12:27.566Z,0.63
2023-03-11T19:14:53.964Z,0.88
2023-03-11T19:17:20.447Z,0.70
2023-03-11T19:19:46.896Z,0.73
2023-03-11T19:22:13.449Z,0.55
2023-03-11T19:24:42.626Z,0.80
2023-03-11T19:27:09.080Z,0.73
2023-03-11T19:29:35.765Z,0.98
2023-03-11T19:32:03.578Z,0.70
2023-03-11T19:34:30.286Z,0.80
2023-03-11T19:36:56.819Z,0.85
2023-03-11T19:39:23.497Z,0.90
2023-03-11T19:41:50.060Z,0.77
2023-03-11T19:44:16.526Z,0.82
2023-03-11T19:46:43.129Z,0.73
2023-03-11T19:49:09.679Z,0.90
2023-03-11T19:51:49.244Z,0.60
2023-03-11T19:54:16.855Z,0.70
2023-03-11T19:56:43.487Z,0.85
2023-03-11T19:59:13.142Z,0.52
2023-03-11T20:01:41.974Z,1.13
2023-03-11T20:04:16.064Z,0.90
2023-03-11T20:06:42.717Z,1.38
2023-03-11T20:09:09.282Z,0.82
2023-03-11T20:11:39.159Z,0.77
2023-03-11T20:14:05.817Z,0.70
2023-03-11T20:16:33.901Z,0.63
2023-03-11T20:19:02.143Z,0.52
2023-03-11T20:21:28.673Z,0.80
2023-03-11T20:23:56.558Z,0.63
2023-03-11T20:26:23.316Z,0.75
2023-03-11T20:28:50.039Z,0.82
2023-03-11T20:31:20.816Z,0.80
2023-03-11T20:33:53.060Z,0.50
2023-03-11T20:36:22.033Z,0.68
2023-03-11T20:38:51.741Z,0.93
2023-03-11T20:41:19.005Z,1.02
2023-03-11T20:43:46.069Z,0.70
2023-03-11T20:46:12.881Z,0.85
2023-03-11T20:48:39.587Z,0.90
2023-03-11T20:51:11.483Z,0.95
2023-03-11T20:53:38.236Z,0.82
2023-03-11T20:56:09.644Z,0.88
2023-03-11T20:58:36.523Z,1.02
2023-03-11T21:01:18.644Z,0.88
2023-03-11T21:03:45.504Z,1.00
2023-03-11T21:06:25.286Z,1.58
2023-03-11T21:08:53.671Z,1.20
2023-03-11T21:11:21.720Z,0.75
2023-03-11T21:13:51.552Z,1.08
2023-03-11T21:16:18.143Z,1.10
2023-03-11T21:18:45.898Z,1.10
2023-03-11T21:21:14.330Z,1.20
2023-03-11T21:23:44.728Z,1.85
2023-03-11T21:26:12.181Z,1.38
2023-03-11T21:28:38.820Z,1.02
2023-03-11T21:31:07.553Z,1.08
2023-03-11T21:33:36.519Z,1.27
2023-03-11T21:36:03.221Z,1.60
2023-03-11T21:38:29.895Z,1.23
2023-03-11T21:41:14.085Z,1.52
2023-03-11T21:43:40.946Z,1.63
2023-03-11T21:46:08.352Z,1.25
2023-03-11T21:48:34.890Z,1.55
2023-03-11T21:51:01.778Z,1.70
2023-03-11T21:53:29.166Z,1.02
2023-03-11T21:55:55.793Z,1.50
2023-03-11T21:58:22.408Z,1.48
2023-03-11T22:00:49.160Z,1.42
2023-03-11T22:03:15.943Z,1.48
2023-03-11T22:05:42.538Z,1.45
2023-03-11T22:08:09.364Z,1.50
2023-03-11T22:10:35.951Z,1.52
2023-03-11T22:13:02.537Z,1.30
2023-03-11T22:15:29.070Z,0.93
2023-03-11T22:17:55.665Z,1.75
2023-03-11T22:20:22.262Z,1.40
2023-03-11T22:22:48.781Z,1.23
2023-03-11T22:25:15.307Z,1.20
2023-03-11T22:27:41.756Z,1.13
2023-03-11T22:30:08.761Z,1.67
2023-03-11T22:32:35.362Z,2.58
2023-03-11T22:35:01.810Z,1.25
2023-03-11T22:37:28.311Z,1.67
2023-03-11T22:39:54.753Z,1.77
2023-03-11T22:42:21.255Z,2.00
2023-03-11T22:44:47.782Z,2.17
2023-03-11T22:47:14.227Z,2.15
2023-03-11T22:49:40.683Z,2.88
2023-03-11T22:52:07.139Z,2.80
2023-03-11T22:54:33.671Z,2.85
2023-03-11T22:57:00.175Z,2.60
2023-03-11T22:59:26.585Z,2.97
2023-03-11T23:01:53.030Z,2.40
2023-03-11T23:04:19.515Z,2.67
2023-03-11T23:06:45.989Z,2.38
2023-03-11T23:09:12.463Z,2.80
2023-03-11T23:11:38.927Z,2.63
2023-03-11T23:14:05.384Z,2.65
2023-03-11T23:16:31.869Z,3.25
2023-03-11T23:18:58.374Z,3.20
2023-03-11T23:21:27.023Z,2.97
2023-03-11T23:23:53.655Z,2.92
2023-03-11T23:26:20.625Z,2.67
2023-03-11T23:28:47.409Z,2.85
2023-03-11T23:31:14.830Z,2.85
2023-03-11T23:33:41.407Z,2.80
2023-03-11T23:36:09.662Z,2.67
2023-03-11T23:38:36.301Z,2.72
2023-03-11T23:41:07.072Z,2.92
2023-03-11T23:43:33.590Z,3.10
2023-03-11T23:46:00.126Z,2.88
2023-03-11T23:48:26.657Z,2.67
2023-03-11T23:50:53.115Z,2.70
2023-03-11T23:53:19.847Z,3.22
2023-03-11T23:55:46.320Z,3.28
2023-03-11T23:58:12.828Z,2.95
